Time,TemperatureF,DewpointF,PressureIn,WindDirection,WindDirectionDegrees,WindSpeedMPH,WindSpeedGustMPH,Humidity,HourlyPrecipIn,Conditions,Clouds,dailyrainin,SoftwareType,DateUTC
2013-06-01 00:03:00,78.0,74.0,30.01,East,85,3.0,9.0,88,0.00,,,0.11,,2013-06-01 04:03:00,
2013-06-01 00:12:00,78.0,74.0,30.01,ESE,120,3.0,7.0,89,0.00,,,0.11,,2013-06-01 04:12:00,
2013-06-01 00:23:00,78.0,74.0,30.01,ESE,120,3.0,7.0,89,0.00,,,0.11,,2013-06-01 04:23:00,
2013-06-01 00:33:00,77.0,74.0,30.01,ESE,105,1.0,12.0,89,0.01,,,0.12,,2013-06-01 04:33:00,
2013-06-01 00:42:00,77.0,74.0,30.00,SE,136,2.0,9.0,89,0.01,,,0.12,,2013-06-01 04:42:00,
2013-06-01 00:53:00,77.0,74.0,30.00,SE,136,2.0,9.0,89,0.01,,,0.12,,2013-06-01 04:53:00,
2013-06-01 01:02:00,76.0,73.0,30.00,ESE,117,5.0,13.0,89,0.01,,,0.12,,2013-06-01 05:02:00,
2013-06-01 01:12:00,76.0,73.0,30.00,ESE,117,5.0,13.0,89,0.01,,,0.12,,2013-06-01 05:12:00,
2013-06-01 01:22:00,76.0,73.0,29.99,ESE,113,1.0,7.0,90,0.01,,,0.12,,2013-06-01 05:22:00,
2013-06-01 01:32:00,76.0,73.0,29.98,ESE,102,0.0,3.0,90,0.00,,,0.12,,2013-06-01 05:32:00,
2013-06-01 01:42:00,77.0,74.0,29.98,ESE,103,0.0,3.0,90,0.00,,,0.12,,2013-06-01 05:42:00,
2013-06-01 01:52:00,77.0,74.0,29.98,ESE,103,0.0,3.0,90,0.00,,,0.12,,2013-06-01 05:52:00,
2013-06-01 02:01:00,77.0,74.0,29.98,East,101,4.0,11.0,90,0.00,,,0.12,,2013-06-01 06:01:00,
2013-06-01 02:12:00,77.0,74.0,29.98,East,90,4.0,10.0,90,0.00,,,0.12,,2013-06-01 06:12:00,
2013-06-01 02:22:00,77.0,74.0,29.98,East,90,4.0,10.0,90,0.00,,,0.12,,2013-06-01 06:22:00,
2013-06-01 02:32:00,77.0,74.0,29.97,East,96,3.0,10.0,89,0.00,,,0.12,,2013-06-01 06:32:00,
2013-06-01 02:42:00,77.0,74.0,29.96,ESE,112,2.0,10.0,89,0.00,,,0.12,,2013-06-01 06:42:00,
2013-06-01 02:52:00,77.0,74.0,29.96,ESE,112,2.0,10.0,89,0.00,,,0.12,,2013-06-01 06:52:00,
2013-06-01 03:01:00,78.0,74.0,29.96,ESE,109,3.0,9.0,89,0.00,,,0.12,,2013-06-01 07:01:00,
2013-06-01 03:11:00,77.0,73.0,29.96,ESE,113,2.0,8.0,88,0.00,,,0.12,,2013-06-01 07:11:00,
2013-06-01 03:22:00,77.0,73.0,29.96,ESE,113,2.0,8.0,88,0.00,,,0.12,,2013-06-01 07:22:00,
2013-06-01 03:32:00,77.0,73.0,29.96,ESE,122,4.0,8.0,88,0.00,,,0.12,,2013-06-01 07:32:00,
2013-06-01 03:42:00,77.0,73.0,29.95,SE,125,2.0,8.0,88,0.00,,,0.12,,2013-06-01 07:42:00,
2013-06-01 03:52:00,77.0,73.0,29.95,SE,125,2.0,8.0,88,0.00,,,0.12,,2013-06-01 07:52:00,
2013-06-01 04:02:00,78.0,74.0,29.95,SE,139,3.0,8.0,88,0.00,,,0.12,,2013-06-01 08:02:00,
2013-06-01 04:11:00,77.0,73.0,29.95,SSE,157,5.0,10.0,88,0.00,,,0.10,,2013-06-01 08:11:00,
2013-06-01 04:21:00,77.0,73.0,29.95,SSE,157,5.0,10.0,88,0.00,,,0.10,,2013-06-01 08:21:00,
2013-06-01 04:32:00,76.0,73.0,29.95,SSE,161,2.0,6.0,89,0.00,,,0.10,,2013-06-01 08:32:00,
2013-06-01 04:42:00,76.0,73.0,29.94,SSE,168,2.0,6.0,89,0.00,,,0.10,,2013-06-01 08:42:00,
2013-06-01 04:52:00,76.0,73.0,29.94,SSE,168,2.0,6.0,89,0.00,,,0.10,,2013-06-01 08:52:00,
2013-06-01 05:02:00,76.0,73.0,29.93,SSE,167,0.0,1.0,89,0.00,,,0.10,,2013-06-01 09:02:00,
2013-06-01 05:12:00,76.0,73.0,29.93,SSE,167,0.0,1.0,89,0.00,,,0.10,,2013-06-01 09:12:00,
2013-06-01 05:21:00,76.0,73.0,29.93,SSE,167,1.0,5.0,90,0.00,,,0.09,,2013-06-01 09:21:00,
2013-06-01 05:33:00,76.0,73.0,29.93,SSE,155,0.0,4.0,90,0.00,,,0.09,,2013-06-01 09:33:00,
2013-06-01 05:42:00,76.0,73.0,29.93,SSE,155,0.0,4.0,90,0.00,,,0.09,,2013-06-01 09:42:00,
2013-06-01 05:53:00,76.0,73.0,29.94,SSE,155,0.0,2.0,90,0.00,,,0.09,,2013-06-01 09:53:00,
2013-06-01 06:02:00,76.0,73.0,29.95,SSE,154,0.0,1.0,90,0.00,,,0.09,,2013-06-01 10:02:00,
2013-06-01 06:13:00,76.0,73.0,29.95,SSE,154,0.0,1.0,90,0.00,,,0.09,,2013-06-01 10:13:00,
2013-06-01 06:22:00,76.0,73.0,29.95,SSE,154,0.0,3.0,90,0.00,,,0.09,,2013-06-01 10:22:00,
2013-06-01 06:33:00,76.0,73.0,29.95,SSE,154,0.0,1.0,90,0.00,,,0.09,,2013-06-01 10:33:00,
2013-06-01 06:42:00,76.0,73.0,29.96,SSE,154,0.0,0.0,90,0.00,,,0.09,,2013-06-01 10:42:00,
2013-06-01 06:52:00,76.0,73.0,29.96,SSE,154,0.0,0.0,90,0.00,,,0.09,,2013-06-01 10:52:00,
2013-06-01 07:03:00,76.0,73.0,29.96,SSE,154,0.0,0.0,90,0.00,,,0.09,,2013-06-01 11:03:00,
2013-06-01 07:11:00,76.0,73.0,29.96,SSE,154,0.0,0.0,90,0.00,,,0.09,,2013-06-01 11:11:00,
2013-06-01 07:21:00,76.0,73.0,29.96,SSE,155,0.0,0.0,90,0.00,,,0.08,,2013-06-01 11:21:00,
2013-06-01 07:33:00,76.0,73.0,29.96,SE,146,0.0,3.0,90,0.00,,,0.08,,2013-06-01 11:33:00,
2013-06-01 07:42:00,76.0,73.0,29.97,ESE,123,0.0,3.0,90,0.00,,,0.08,,2013-06-01 11:42:00,
2013-06-01 07:52:00,76.0,73.0,29.97,ESE,123,0.0,3.0,90,0.00,,,0.08,,2013-06-01 11:52:00,
2013-06-01 08:01:00,77.0,74.0,29.98,ESE,123,0.0,0.0,91,0.00,,,0.08,,2013-06-01 12:01:00,
2013-06-01 08:12:00,77.0,74.0,29.98,ESE,123,0.0,0.0,91,0.00,,,0.08,,2013-06-01 12:12:00,
2013-06-01 08:22:00,77.0,74.0,29.98,ESE,123,0.0,0.0,91,0.00,,,0.08,,2013-06-01 12:22:00,
2013-06-01 08:32:00,77.0,74.0,29.98,ESE,123,0.0,1.0,91,0.00,,,0.08,,2013-06-01 12:32:00,
2013-06-01 08:42:00,77.0,74.0,29.98,ESE,123,0.0,2.0,91,0.00,,,0.08,,2013-06-01 12:42:00,
2013-06-01 08:52:00,77.0,74.0,29.98,ESE,123,0.0,2.0,91,0.00,,,0.08,,2013-06-01 12:52:00,
2013-06-01 09:01:00,77.0,74.0,29.98,ESE,123,0.0,3.0,90,0.00,,,0.08,,2013-06-01 13:01:00,
2013-06-01 09:11:00,77.0,74.0,29.98,ESE,123,0.0,3.0,90,0.00,,,0.08,,2013-06-01 13:11:00,
2013-06-01 09:22:00,78.0,74.0,29.98,NNE,30,0.0,4.0,89,0.00,,,0.08,,2013-06-01 13:22:00,
2013-06-01 09:32:00,79.0,75.0,29.99,NNE,31,0.0,3.0,88,0.00,,,0.08,,2013-06-01 13:32:00,
2013-06-01 09:42:00,79.0,75.0,29.99,East,88,0.0,4.0,88,0.00,,,0.08,,2013-06-01 13:42:00,
2013-06-01 09:52:00,79.0,75.0,29.99,East,88,0.0,4.0,88,0.00,,,0.08,,2013-06-01 13:52:00,
2013-06-01 10:02:00,80.0,76.0,29.99,SE,130,0.0,8.0,87,0.00,,,0.08,,2013-06-01 14:02:00,
2013-06-01 10:11:00,80.0,76.0,29.99,SE,130,0.0,8.0,87,0.00,,,0.08,,2013-06-01 14:11:00,
2013-06-01 10:21:00,80.0,76.0,29.99,ESE,121,2.0,8.0,87,0.00,,,0.08,,2013-06-01 14:21:00,
2013-06-01 10:32:00,81.0,76.0,30.00,ESE,105,1.0,7.0,85,0.00,,,0.08,,2013-06-01 14:32:00,
2013-06-01 10:42:00,81.0,76.0,30.00,ESE,105,1.0,7.0,85,0.00,,,0.08,,2013-06-01 14:42:00,
2013-06-01 10:52:00,80.0,74.0,30.00,SSE,154,5.0,8.0,83,0.00,,,0.08,,2013-06-01 14:52:00,
2013-06-01 11:02:00,79.0,74.0,30.01,SSE,155,3.0,7.0,85,0.02,,,0.10,,2013-06-01 15:02:00,
2013-06-01 11:11:00,79.0,74.0,30.01,SSE,155,3.0,7.0,85,0.02,,,0.10,,2013-06-01 15:11:00,
2013-06-01 11:21:00,79.0,74.0,30.00,SSE,157,0.0,4.0,86,0.02,,,0.10,,2013-06-01 15:21:00,
2013-06-01 11:33:00,79.0,75.0,30.00,SE,131,2.0,6.0,87,0.03,,,0.11,,2013-06-01 15:33:00,
2013-06-01 11:43:00,79.0,75.0,30.00,SE,131,2.0,6.0,87,0.03,,,0.11,,2013-06-01 15:43:00,
2013-06-01 11:53:00,80.0,76.0,30.00,ESE,121,1.0,7.0,88,0.03,,,0.11,,2013-06-01 15:53:00,
2013-06-01 12:03:00,81.0,77.0,30.00,ESE,117,1.0,7.0,87,0.01,,,0.11,,2013-06-01 16:03:00,
2013-06-01 12:12:00,81.0,77.0,30.00,ESE,117,1.0,7.0,87,0.01,,,0.11,,2013-06-01 16:12:00,
2013-06-01 12:23:00,81.0,76.0,30.00,SE,130,3.0,7.0,86,0.01,,,0.11,,2013-06-01 16:23:00,
2013-06-01 12:33:00,81.0,76.0,30.00,ESE,121,3.0,8.0,85,0.00,,,0.11,,2013-06-01 16:33:00,
2013-06-01 12:42:00,82.0,77.0,30.00,SE,138,3.0,9.0,84,0.00,,,0.11,,2013-06-01 16:42:00,
2013-06-01 12:52:00,82.0,77.0,30.00,SE,138,3.0,9.0,84,0.00,,,0.11,,2013-06-01 16:52:00,
2013-06-01 13:02:00,82.0,77.0,29.99,ESE,121,3.0,9.0,84,0.00,,,0.11,,2013-06-01 17:02:00,
2013-06-01 13:12:00,82.0,77.0,29.99,ESE,121,3.0,9.0,84,0.00,,,0.11,,2013-06-01 17:12:00,
2013-06-01 13:22:00,81.0,76.0,29.99,SE,132,3.0,10.0,84,0.00,,,0.11,,2013-06-01 17:22:00,
2013-06-01 13:32:00,81.0,76.0,29.98,SE,126,4.0,11.0,84,0.00,,,0.11,,2013-06-01 17:32:00,
2013-06-01 13:42:00,81.0,75.0,29.98,SSE,159,7.0,13.0,83,0.00,,,0.11,,2013-06-01 17:42:00,
2013-06-01 13:52:00,81.0,75.0,29.98,SSE,159,7.0,13.0,83,0.00,,,0.11,,2013-06-01 17:52:00,
2013-06-01 14:01:00,82.0,76.0,29.98,East,98,6.0,11.0,83,0.00,,,0.11,,2013-06-01 18:01:00,
2013-06-01 14:12:00,82.0,76.0,29.98,East,98,6.0,11.0,83,0.00,,,0.11,,2013-06-01 18:12:00,
2013-06-01 14:22:00,81.0,76.0,29.98,East,101,5.0,14.0,84,0.00,,,0.11,,2013-06-01 18:22:00,
2013-06-01 14:32:00,80.0,74.0,29.97,SE,139,6.0,12.0,83,0.00,,,0.11,,2013-06-01 18:32:00,
2013-06-01 14:42:00,81.0,75.0,29.97,SE,145,6.0,16.0,83,0.00,,,0.11,,2013-06-01 18:42:00,
2013-06-01 14:52:00,81.0,75.0,29.97,SE,145,6.0,16.0,83,0.00,,,0.11,,2013-06-01 18:52:00,
2013-06-01 15:02:00,79.0,73.0,29.97,SE,144,7.0,12.0,82,0.00,,,0.11,,2013-06-01 19:02:00,
2013-06-01 15:11:00,78.0,73.0,29.96,South,181,3.0,9.0,85,0.00,,,0.11,,2013-06-01 19:11:00,
2013-06-01 15:21:00,78.0,73.0,29.96,South,181,3.0,9.0,85,0.00,,,0.11,,2013-06-01 19:21:00,
2013-06-01 15:32:00,77.0,73.0,29.97,SE,130,3.0,13.0,88,0.00,,,0.11,,2013-06-01 19:32:00,
2013-06-01 15:42:00,77.0,74.0,29.97,SE,140,3.0,7.0,89,0.01,,,0.12,,2013-06-01 19:42:00,
2013-06-01 15:52:00,77.0,74.0,29.97,SE,140,3.0,7.0,89,0.01,,,0.12,,2013-06-01 19:52:00,
2013-06-01 16:02:00,77.0,74.0,29.95,ESE,117,2.0,7.0,89,0.01,,,0.12,,2013-06-01 20:02:00,
2013-06-01 16:12:00,77.0,74.0,29.95,ESE,117,2.0,7.0,89,0.01,,,0.12,,2013-06-01 20:12:00,
2013-06-01 16:21:00,78.0,75.0,29.95,ESE,119,0.0,7.0,90,0.01,,,0.12,,2013-06-01 20:21:00,
2013-06-01 16:32:00,77.0,74.0,29.96,ESE,113,1.0,8.0,89,0.01,,,0.12,,2013-06-01 20:32:00,
2013-06-01 16:42:00,78.0,74.0,29.95,ESE,121,0.0,4.0,88,0.00,,,0.12,,2013-06-01 20:42:00,
2013-06-01 16:52:00,78.0,74.0,29.95,ESE,121,0.0,4.0,88,0.00,,,0.12,,2013-06-01 20:52:00,
2013-06-01 17:01:00,78.0,74.0,29.95,SE,124,2.0,7.0,87,0.00,,,0.12,,2013-06-01 21:01:00,
2013-06-01 17:11:00,78.0,74.0,29.96,ESE,103,4.0,9.0,87,0.00,,,0.12,,2013-06-01 21:11:00,
2013-06-01 17:21:00,78.0,74.0,29.96,ESE,103,4.0,9.0,87,0.00,,,0.12,,2013-06-01 21:21:00,
2013-06-01 17:33:00,78.0,74.0,29.95,SE,140,2.0,8.0,87,0.00,,,0.12,,2013-06-01 21:33:00,
2013-06-01 17:43:00,78.0,74.0,29.95,SE,140,2.0,8.0,87,0.00,,,0.12,,2013-06-01 21:43:00,
2013-06-01 17:53:00,77.0,73.0,29.96,SSE,154,4.0,11.0,87,0.00,,,0.12,,2013-06-01 21:53:00,
2013-06-01 18:03:00,77.0,73.0,29.95,SE,128,2.0,7.0,88,0.01,,,0.13,,2013-06-01 22:03:00,
2013-06-01 18:12:00,77.0,74.0,29.96,SSE,150,2.0,14.0,89,0.02,,,0.14,,2013-06-01 22:12:00,
2013-06-01 18:23:00,77.0,74.0,29.96,SSE,150,2.0,14.0,89,0.02,,,0.14,,2013-06-01 22:23:00,
2013-06-01 18:33:00,77.0,74.0,29.97,South,172,4.0,9.0,89,0.03,,,0.15,,2013-06-01 22:33:00,
2013-06-01 18:42:00,77.0,74.0,29.97,SSE,167,4.0,8.0,90,0.05,,,0.17,,2013-06-01 22:42:00,
2013-06-01 18:53:00,77.0,74.0,29.97,SSE,167,4.0,8.0,90,0.05,,,0.17,,2013-06-01 22:53:00,
2013-06-01 19:02:00,76.0,73.0,29.98,SSE,155,0.0,3.0,89,0.09,,,0.22,,2013-06-01 23:02:00,
2013-06-01 19:11:00,75.0,72.0,29.98,SSE,155,1.0,4.0,89,0.09,,,0.20,,2013-06-01 23:11:00,
2013-06-01 19:22:00,75.0,72.0,29.98,SSE,155,1.0,4.0,89,0.09,,,0.20,,2013-06-01 23:22:00,
2013-06-01 19:32:00,75.0,72.0,29.98,SSE,155,0.0,1.0,89,0.09,,,0.21,,2013-06-01 23:32:00,
2013-06-01 19:42:00,75.0,72.0,29.98,SSE,155,0.0,1.0,89,0.09,,,0.21,,2013-06-01 23:42:00,
2013-06-01 19:52:00,75.0,72.0,29.97,SSE,155,0.0,3.0,90,0.07,,,0.22,,2013-06-01 23:52:00,
2013-06-01 20:02:00,75.0,72.0,29.96,SSE,155,0.0,1.0,90,0.03,,,0.22,,2013-06-02 00:02:00,
2013-06-01 20:11:00,75.0,72.0,29.96,SSE,155,0.0,1.0,90,0.03,,,0.22,,2013-06-02 00:11:00,
2013-06-01 20:22:00,75.0,72.0,29.97,SSE,155,0.0,1.0,90,0.02,,,0.22,,2013-06-02 00:22:00,
2013-06-01 20:32:00,75.0,72.0,29.98,SSE,155,0.0,0.0,91,0.01,,,0.22,,2013-06-02 00:32:00,
2013-06-01 20:42:00,75.0,72.0,29.98,SSE,155,0.0,0.0,91,0.01,,,0.22,,2013-06-02 00:42:00,
2013-06-01 20:51:00,75.0,72.0,29.98,SSE,155,0.0,1.0,91,0.00,,,0.22,,2013-06-02 00:51:00,
2013-06-01 21:01:00,75.0,73.0,29.98,SSE,155,0.0,0.0,92,0.00,,,0.22,,2013-06-02 01:01:00,
2013-06-01 21:11:00,75.0,73.0,29.98,SSE,155,0.0,0.0,92,0.00,,,0.22,,2013-06-02 01:11:00,
2013-06-01 21:21:00,75.0,73.0,29.97,SSE,155,0.0,4.0,92,0.00,,,0.18,,2013-06-02 01:21:00,
2013-06-01 21:32:00,75.0,73.0,29.98,SW,232,0.0,0.0,92,0.00,,,0.18,,2013-06-02 01:32:00,
2013-06-01 21:42:00,75.0,73.0,29.98,SW,232,0.0,0.0,92,0.00,,,0.18,,2013-06-02 01:42:00,
2013-06-01 21:52:00,75.0,73.0,29.98,SW,232,0.0,0.0,92,0.00,,,0.18,,2013-06-02 01:52:00,
2013-06-01 22:02:00,75.0,73.0,29.98,SW,232,0.0,0.0,92,0.00,,,0.18,,2013-06-02 02:02:00,
2013-06-01 22:12:00,75.0,73.0,29.98,SW,232,0.0,0.0,92,0.00,,,0.18,,2013-06-02 02:12:00,
2013-06-01 22:21:00,75.0,73.0,29.97,SW,232,0.0,1.0,92,0.00,,,0.18,,2013-06-02 02:21:00,
2013-06-01 22:32:00,75.0,73.0,29.98,SW,232,0.0,0.0,92,0.00,,,0.18,,2013-06-02 02:32:00,
2013-06-01 22:42:00,75.0,73.0,29.98,SW,232,0.0,0.0,92,0.00,,,0.18,,2013-06-02 02:42:00,
2013-06-01 22:52:00,75.0,73.0,29.98,SW,232,0.0,1.0,92,0.00,,,0.18,,2013-06-02 02:52:00,
2013-06-01 23:02:00,75.0,73.0,29.99,SW,232,0.0,0.0,92,0.00,,,0.18,,2013-06-02 03:02:00,
2013-06-01 23:11:00,75.0,73.0,29.99,SW,232,0.0,0.0,92,0.00,,,0.18,,2013-06-02 03:11:00,
2013-06-01 23:21:00,75.0,73.0,29.99,SW,232,0.0,1.0,92,0.00,,,0.18,,2013-06-02 03:21:00,
2013-06-01 23:33:00,75.0,73.0,29.99,SW,232,0.0,1.0,92,0.00,,,0.18,,2013-06-02 03:33:00,
2013-06-01 23:43:00,75.0,73.0,29.98,SW,232,0.0,1.0,92,0.00,,,0.18,,2013-06-02 03:43:00,
2013-06-01 23:53:00,75.0,73.0,29.98,SW,232,0.0,1.0,92,0.00,,,0.18,,2013-06-02 03:53:00,